sensor_id;sensor_type;location;lat;lon;timestamp;pressure;altitude;pressure_sealevel;temperature;humidity
35577;BME280;21680;52.400;16.920;2023-05-16T00:01:18;99799.05;;;10.68;100.00
35577;BME280;21680;52.400;16.920;2023-05-16T00:03:44;99799.31;;;10.66;100.00
35577;BME280;21680;52.400;16.920;2023-05-16T00:06:09;99798.40;;;10.64;100.00
35577;BME280;21680;52.400;16.920;2023-05-16T00:08:35;99797.10;;;10.61;100.00
35577;BME280;21680;52.400;16.920;2023-05-16T00:11:01;99801.05;;;10.58;100.00
35577;BME280;21680;52.400;16.920;2023-05-16T00:13:27;99801.03;;;10.55;100.00
35577;BME280;21680;52.400;16.920;2023-05-16T00:15:54;99796.61;;;10.51;100.00
35577;BME280;21680;52.400;16.920;2023-05-16T00:18:22;99800.06;;;10.50;100.00
35577;BME280;21680;52.400;16.920;2023-05-16T00:20:48;99799.67;;;10.48;100.00
35577;BME280;21680;52.400;16.920;2023-05-16T00:23:14;99797.85;;;10.45;100.00
35577;BME280;21680;52.400;16.920;2023-05-16T00:25:39;99795.12;;;10.43;100.00
35577;BME280;21680;52.400;16.920;2023-05-16T00:28:06;99796.59;;;10.39;100.00
35577;BME280;21680;52.400;16.920;2023-05-16T00:30:32;99797.05;;;10.38;100.00
35577;BME280;21680;52.400;16.920;2023-05-16T00:32:57;99800.13;;;10.37;100.00
35577;BME280;21680;52.400;16.920;2023-05-16T00:35:22;99802.30;;;10.36;100.00
35577;BME280;21680;52.400;16.920;2023-05-16T00:37:49;99805.07;;;10.38;100.00
35577;BME280;21680;52.400;16.920;2023-05-16T00:40:15;99801.59;;;10.37;100.00
35577;BME280;21680;52.400;16.920;2023-05-16T00:42:40;99807.42;;;10.34;100.00
35577;BME280;21680;52.400;16.920;2023-05-16T00:45:06;99808.60;;;10.32;100.00
35577;BME280;21680;52.400;16.920;2023-05-16T00:47:32;99815.52;;;10.30;100.00
35577;BME280;21680;52.400;16.920;2023-05-16T00:49:57;99813.98;;;10.29;100.00
35577;BME280;21680;52.400;16.920;2023-05-16T00:52:23;99820.20;;;10.26;100.00
35577;BME280;21680;52.400;16.920;2023-05-16T00:54:50;99827.42;;;10.25;100.00
35577;BME280;21680;52.400;16.920;2023-05-16T00:57:16;99825.59;;;10.22;100.00
35577;BME280;21680;52.400;16.920;2023-05-16T00:59:42;99826.98;;;10.19;100.00
35577;BME280;21680;52.400;16.920;2023-05-16T01:02:08;99837.23;;;10.18;100.00
35577;BME280;21680;52.400;16.920;2023-05-16T01:04:34;99834.10;;;10.17;100.00
35577;BME280;21680;52.400;16.920;2023-05-16T01:07:00;99840.98;;;10.15;100.00
35577;BME280;21680;52.400;16.920;2023-05-16T01:09:26;99843.75;;;10.13;100.00
35577;BME280;21680;52.400;16.920;2023-05-16T01:27:29;99875.21;;;10.51;100.00
35577;BME280;21680;52.400;16.920;2023-05-16T01:29:56;99884.51;;;10.51;100.00
35577;BME280;21680;52.400;16.920;2023-05-16T01:35:23;99886.92;;;10.40;100.00
35577;BME280;21680;52.400;16.920;2023-05-16T01:38:03;99894.88;;;10.38;100.00
35577;BME280;21680;52.400;16.920;2023-05-16T01:52:11;99905.16;;;10.62;100.00
35577;BME280;21680;52.400;16.920;2023-05-16T01:54:41;99909.52;;;10.57;100.00
35577;BME280;21680;52.400;16.920;2023-05-16T01:57:08;99915.28;;;10.50;100.00
35577;BME280;21680;52.400;16.920;2023-05-16T01:59:35;99917.34;;;10.45;100.00
35577;BME280;21680;52.400;16.920;2023-05-16T02:02:01;99910.42;;;10.41;100.00
35577;BME280;21680;52.400;16.920;2023-05-16T02:04:26;99912.50;;;10.39;100.00
35577;BME280;21680;52.400;16.920;2023-05-16T02:06:52;99918.42;;;10.39;100.00
35577;BME280;21680;52.400;16.920;2023-05-16T02:09:18;99924.15;;;10.38;100.00
35577;BME280;21680;52.400;16.920;2023-05-16T02:11:43;99924.64;;;10.39;100.00
35577;BME280;21680;52.400;16.920;2023-05-16T02:14:08;99929.30;;;10.39;100.00
35577;BME280;21680;52.400;16.920;2023-05-16T02:16:34;99931.63;;;10.39;100.00
35577;BME280;21680;52.400;16.920;2023-05-16T02:19:00;99934.36;;;10.38;100.00
35577;BME280;21680;52.400;16.920;2023-05-16T02:21:25;99939.60;;;10.37;100.00
35577;BME280;21680;52.400;16.920;2023-05-16T02:23:51;99939.70;;;10.35;100.00
35577;BME280;21680;52.400;16.920;2023-05-16T02:26:16;99937.68;;;10.33;100.00
35577;BME280;21680;52.400;16.920;2023-05-16T02:28:41;99944.05;;;10.31;100.00
35577;BME280;21680;52.400;16.920;2023-05-16T02:31:06;99949.02;;;10.28;100.00
35577;BME280;21680;52.400;16.920;2023-05-16T02:33:32;99955.90;;;10.26;100.00
35577;BME280;21680;52.400;16.920;2023-05-16T02:35:58;99948.50;;;10.24;100.00
35577;BME280;21680;52.400;16.920;2023-05-16T02:38:24;99949.82;;;10.23;100.00
35577;BME280;21680;52.400;16.920;2023-05-16T02:40:49;99953.85;;;10.21;100.00
35577;BME280;21680;52.400;16.920;2023-05-16T02:43:14;99959.47;;;10.19;100.00
35577;BME280;21680;52.400;16.920;2023-05-16T02:45:40;99965.21;;;10.19;100.00
35577;BME280;21680;52.400;16.920;2023-05-16T02:48:05;99974.52;;;10.18;100.00
35577;BME280;21680;52.400;16.920;2023-05-16T02:50:32;99985.58;;;10.18;100.00
35577;BME280;21680;52.400;16.920;2023-05-16T02:52:57;99988.04;;;10.20;100.00
35577;BME280;21680;52.400;16.920;2023-05-16T02:55:24;99991.03;;;10.20;100.00
35577;BME280;21680;52.400;16.920;2023-05-16T02:57:50;99998.73;;;10.20;100.00
35577;BME280;21680;52.400;16.920;2023-05-16T03:00:16;100000.02;;;10.19;100.00
35577;BME280;21680;52.400;16.920;2023-05-16T03:02:42;100002.50;;;10.19;100.00
35577;BME280;21680;52.400;16.920;2023-05-16T03:05:08;100002.15;;;10.19;100.00
35577;BME280;21680;52.400;16.920;2023-05-16T03:07:34;99999.86;;;10.18;100.00
35577;BME280;21680;52.400;16.920;2023-05-16T03:10:00;100006.06;;;10.19;100.00
35577;BME280;21680;52.400;16.920;2023-05-16T03:12:25;100006.44;;;10.19;100.00
35577;BME280;21680;52.400;16.920;2023-05-16T03:14:50;100009.33;;;10.18;100.00
35577;BME280;21680;52.400;16.920;2023-05-16T03:17:16;100013.61;;;10.18;100.00
35577;BME280;21680;52.400;16.920;2023-05-16T03:19:41;100012.91;;;10.18;100.00
35577;BME280;21680;52.400;16.920;2023-05-16T03:22:06;100009.17;;;10.18;100.00
35577;BME280;21680;52.400;16.920;2023-05-16T03:24:31;100013.60;;;10.18;100.00
35577;BME280;21680;52.400;16.920;2023-05-16T03:26:57;100013.39;;;10.19;100.00
35577;BME280;21680;52.400;16.920;2023-05-16T03:29:24;100021.09;;;10.19;100.00
35577;BME280;21680;52.400;16.920;2023-05-16T03:31:51;100018.98;;;10.18;100.00
35577;BME280;21680;52.400;16.920;2023-05-16T03:34:16;100021.10;;;10.18;100.00
35577;BME280;21680;52.400;16.920;2023-05-16T03:36:41;100031.27;;;10.18;100.00
35577;BME280;21680;52.400;16.920;2023-05-16T03:39:07;100033.45;;;10.18;100.00
35577;BME280;21680;52.400;16.920;2023-05-16T03:41:33;100037.17;;;10.18;100.00
35577;BME280;21680;52.400;16.920;2023-05-16T03:43:59;100043.17;;;10.20;100.00
35577;BME280;21680;52.400;16.920;2023-05-16T03:46:25;100044.35;;;10.22;100.00
35577;BME280;21680;52.400;16.920;2023-05-16T03:48:50;100045.13;;;10.24;100.00
35577;BME280;21680;52.400;16.920;2023-05-16T03:51:15;100047.91;;;10.25;100.00
35577;BME280;21680;52.400;16.920;2023-05-16T03:53:41;100045.05;;;10.26;100.00
35577;BME280;21680;52.400;16.920;2023-05-16T03:56:06;100053.08;;;10.25;100.00
35577;BME280;21680;52.400;16.920;2023-05-16T03:58:32;100055.83;;;10.24;100.00
35577;BME280;21680;52.400;16.920;2023-05-16T04:00:57;100059.48;;;10.22;100.00
35577;BME280;21680;52.400;16.920;2023-05-16T04:03:23;100061.67;;;10.22;100.00
35577;BME280;21680;52.400;16.920;2023-05-16T04:05:53;100068.64;;;10.22;100.00
35577;BME280;21680;52.400;16.920;2023-05-16T04:08:19;100072.52;;;10.22;100.00
35577;BME280;21680;52.400;16.920;2023-05-16T04:10:44;100075.39;;;10.22;100.00
35577;BME280;21680;52.400;16.920;2023-05-16T04:13:09;100077.61;;;10.24;100.00
35577;BME280;21680;52.400;16.920;2023-05-16T04:15:35;100086.96;;;10.26;100.00
35577;BME280;21680;52.400;16.920;2023-05-16T04:18:00;100088.18;;;10.27;100.00
35577;BME280;21680;52.400;16.920;2023-05-16T04:20:25;100088.50;;;10.28;100.00
35577;BME280;21680;52.400;16.920;2023-05-16T04:22:50;100094.05;;;10.27;100.00
35577;BME280;21680;52.400;16.920;2023-05-16T04:25:16;100096.11;;;10.29;100.00
35577;BME280;21680;52.400;16.920;2023-05-16T04:27:41;100101.24;;;10.30;100.00
35577;BME280;21680;52.400;16.920;2023-05-16T04:30:07;100106.52;;;10.31;100.00
35577;BME280;21680;52.400;16.920;2023-05-16T04:32:35;100115.73;;;10.33;100.00
35577;BME280;21680;52.400;16.920;2023-05-16T04:35:01;100121.61;;;10.33;100.00
35577;BME280;21680;52.400;16.920;2023-05-16T04:37:26;100124.23;;;10.34;100.00
35577;BME280;21680;52.400;16.920;2023-05-16T04:39:52;100135.74;;;10.36;100.00
35577;BME280;21680;52.400;16.920;2023-05-16T04:42:18;100141.23;;;10.37;100.00
35577;BME280;21680;52.400;16.920;2023-05-16T04:44:43;100145.23;;;10.39;100.00
35577;BME280;21680;52.400;16.920;2023-05-16T04:47:09;100149.01;;;10.42;100.00
35577;BME280;21680;52.400;16.920;2023-05-16T04:49:35;100154.03;;;10.45;100.00
35577;BME280;21680;52.400;16.920;2023-05-16T04:52:00;100158.21;;;10.47;100.00
35577;BME280;21680;52.400;16.920;2023-05-16T04:54:26;100162.09;;;10.48;100.00
35577;BME280;21680;52.400;16.920;2023-05-16T04:56:51;100170.29;;;10.52;100.00
35577;BME280;21680;52.400;16.920;2023-05-16T04:59:16;100170.97;;;10.56;100.00
35577;BME280;21680;52.400;16.920;2023-05-16T05:01:41;100167.48;;;10.61;100.00
35577;BME280;21680;52.400;16.920;2023-05-16T05:04:07;100171.17;;;10.69;100.00
35577;BME280;21680;52.400;16.920;2023-05-16T05:06:32;100177.47;;;10.79;100.00
35577;BME280;21680;52.400;16.920;2023-05-16T05:08:57;100184.04;;;10.87;100.00
35577;BME280;21680;52.400;16.920;2023-05-16T05:11:22;100186.23;;;10.92;100.00
35577;BME280;21680;52.400;16.920;2023-05-16T05:13:48;100184.75;;;10.97;100.00
35577;BME280;21680;52.400;16.920;2023-05-16T05:16:13;100184.30;;;10.98;100.00
35577;BME280;21680;52.400;16.920;2023-05-16T05:18:38;100178.45;;;11.01;100.00
35577;BME280;21680;52.400;16.920;2023-05-16T05:21:03;100180.53;;;11.06;100.00
35577;BME280;21680;52.400;16.920;2023-05-16T05:23:29;100187.42;;;11.11;100.00
35577;BME280;21680;52.400;16.920;2023-05-16T05:25:55;100185.05;;;11.15;100.00
35577;BME280;21680;52.400;16.920;2023-05-16T05:28:20;100182.13;;;11.20;100.00
35577;BME280;21680;52.400;16.920;2023-05-16T05:30:45;100184.23;;;11.23;100.00
35577;BME280;21680;52.400;16.920;2023-05-16T05:33:15;100184.66;;;11.25;100.00
35577;BME280;21680;52.400;16.920;2023-05-16T05:35:40;100183.79;;;11.28;100.00
35577;BME280;21680;52.400;16.920;2023-05-16T05:38:06;100181.94;;;11.33;100.00
35577;BME280;21680;52.400;16.920;2023-05-16T05:40:31;100181.09;;;11.39;100.00
35577;BME280;21680;52.400;16.920;2023-05-16T05:42:56;100185.90;;;11.46;100.00
35577;BME280;21680;52.400;16.920;2023-05-16T05:45:22;100183.23;;;11.52;100.00
35577;BME280;21680;52.400;16.920;2023-05-16T05:47:47;100189.33;;;11.58;100.00
35577;BME280;21680;52.400;16.920;2023-05-16T05:50:12;100192.02;;;11.64;100.00
35577;BME280;21680;52.400;16.920;2023-05-16T05:52:38;100196.35;;;11.70;100.00
35577;BME280;21680;52.400;16.920;2023-05-16T05:55:04;100199.76;;;11.77;100.00
35577;BME280;21680;52.400;16.920;2023-05-16T05:57:30;100209.57;;;11.87;100.00
35577;BME280;21680;52.400;16.920;2023-05-16T05:59:55;100209.86;;;11.92;100.00
35577;BME280;21680;52.400;16.920;2023-05-16T06:02:20;100211.02;;;11.90;100.00
35577;BME280;21680;52.400;16.920;2023-05-16T06:04:46;100213.66;;;11.88;100.00
35577;BME280;21680;52.400;16.920;2023-05-16T06:07:11;100222.88;;;11.86;100.00
35577;BME280;21680;52.400;16.920;2023-05-16T06:09:37;100222.48;;;11.81;100.00
35577;BME280;21680;52.400;16.920;2023-05-16T06:12:03;100225.67;;;11.84;100.00
35577;BME280;21680;52.400;16.920;2023-05-16T06:14:28;100224.06;;;11.94;100.00
35577;BME280;21680;52.400;16.920;2023-05-16T06:16:53;100230.66;;;11.98;100.00
35577;BME280;21680;52.400;16.920;2023-05-16T06:19:19;100228.36;;;11.97;100.00
35577;BME280;21680;52.400;16.920;2023-05-16T06:21:44;100229.27;;;12.00;100.00
35577;BME280;21680;52.400;16.920;2023-05-16T06:24:10;100230.40;;;12.02;100.00
35577;BME280;21680;52.400;16.920;2023-05-16T06:26:36;100238.92;;;12.00;100.00
35577;BME280;21680;52.400;16.920;2023-05-16T06:29:01;100245.14;;;11.98;100.00
35577;BME280;21680;52.400;16.920;2023-05-16T06:31:27;100251.20;;;12.02;100.00
35577;BME280;21680;52.400;16.920;2023-05-16T06:33:52;100262.14;;;12.08;100.00
35577;BME280;21680;52.400;16.920;2023-05-16T06:36:17;100274.72;;;12.14;100.00
35577;BME280;21680;52.400;16.920;2023-05-16T06:38:42;100286.27;;;12.15;100.00
35577;BME280;21680;52.400;16.920;2023-05-16T06:41:08;100292.79;;;12.24;99.86
35577;BME280;21680;52.400;16.920;2023-05-16T06:43:33;100299.73;;;12.34;100.00
35577;BME280;21680;52.400;16.920;2023-05-16T06:45:58;100309.63;;;12.40;100.00
35577;BME280;21680;52.400;16.920;2023-05-16T06:48:23;100314.84;;;12.46;99.92
35577;BME280;21680;52.400;16.920;2023-05-16T06:50:49;100319.92;;;12.44;99.54
35577;BME280;21680;52.400;16.920;2023-05-16T06:53:18;100310.61;;;12.38;99.45
35577;BME280;21680;52.400;16.920;2023-05-16T06:55:43;100309.66;;;12.39;99.46
35577;BME280;21680;52.400;16.920;2023-05-16T06:58:09;100306.95;;;12.43;99.64
35577;BME280;21680;52.400;16.920;2023-05-16T07:00:35;100301.80;;;12.48;99.59
35577;BME280;21680;52.400;16.920;2023-05-16T07:03:00;100299.76;;;12.46;99.45
35577;BME280;21680;52.400;16.920;2023-05-16T07:05:26;100305.98;;;12.41;99.21
35577;BME280;21680;52.400;16.920;2023-05-16T07:07:51;100315.02;;;12.42;99.15
35577;BME280;21680;52.400;16.920;2023-05-16T07:10:16;100321.77;;;12.47;99.18
35577;BME280;21680;52.400;16.920;2023-05-16T07:12:42;100323.90;;;12.57;99.11
35577;BME280;21680;52.400;16.920;2023-05-16T07:15:08;100320.55;;;12.65;98.83
35577;BME280;21680;52.400;16.920;2023-05-16T07:17:33;100322.52;;;12.78;98.88
35577;BME280;21680;52.400;16.920;2023-05-16T07:19:59;100310.83;;;12.87;98.54
35577;BME280;21680;52.400;16.920;2023-05-16T07:22:25;100315.79;;;12.94;98.33
35577;BME280;21680;52.400;16.920;2023-05-16T07:24:50;100314.36;;;12.97;97.80
35577;BME280;21680;52.400;16.920;2023-05-16T07:27:18;100308.08;;;13.00;97.61
35577;BME280;21680;52.400;16.920;2023-05-16T07:29:43;100303.41;;;13.00;97.32
35577;BME280;21680;52.400;16.920;2023-05-16T07:32:08;100299.97;;;13.04;97.08
35577;BME280;21680;52.400;16.920;2023-05-16T07:34:34;100306.53;;;13.08;96.92
35577;BME280;21680;52.400;16.920;2023-05-16T07:36:59;100308.11;;;13.15;96.93
35577;BME280;21680;52.400;16.920;2023-05-16T07:39:24;100310.05;;;13.19;96.66
35577;BME280;21680;52.400;16.920;2023-05-16T07:41:50;100317.45;;;13.24;96.43
35577;BME280;21680;52.400;16.920;2023-05-16T07:44:16;100312.27;;;13.29;95.94
35577;BME280;21680;52.400;16.920;2023-05-16T07:46:41;100317.29;;;13.36;95.76
35577;BME280;21680;52.400;16.920;2023-05-16T07:49:09;100316.65;;;13.41;95.31
35577;BME280;21680;52.400;16.920;2023-05-16T07:51:34;100314.50;;;13.41;94.83
35577;BME280;21680;52.400;16.920;2023-05-16T07:54:00;100308.77;;;13.43;94.50
35577;BME280;21680;52.400;16.920;2023-05-16T07:56:26;100304.32;;;13.48;94.45
35577;BME280;21680;52.400;16.920;2023-05-16T07:58:51;100300.71;;;13.60;94.61
35577;BME280;21680;52.400;16.920;2023-05-16T08:01:17;100308.85;;;13.74;94.58
35577;BME280;21680;52.400;16.920;2023-05-16T08:03:42;100311.88;;;13.80;94.14
35577;BME280;21680;52.400;16.920;2023-05-16T08:06:07;100318.02;;;13.76;93.17
35577;BME280;21680;52.400;16.920;2023-05-16T08:08:33;100313.89;;;13.71;92.23
35577;BME280;21680;52.400;16.920;2023-05-16T08:10:58;100309.35;;;13.75;92.42
35577;BME280;21680;52.400;16.920;2023-05-16T08:13:23;100308.44;;;13.86;92.25
35577;BME280;21680;52.400;16.920;2023-05-16T08:15:48;100314.13;;;13.98;91.96
35577;BME280;21680;52.400;16.920;2023-05-16T08:18:14;100316.60;;;13.99;90.06
35577;BME280;21680;52.400;16.920;2023-05-16T08:20:40;100320.35;;;14.03;90.17
35577;BME280;21680;52.400;16.920;2023-05-16T08:23:07;100324.23;;;14.15;90.19
35577;BME280;21680;52.400;16.920;2023-05-16T08:25:32;100316.70;;;14.21;89.72
35577;BME280;21680;52.400;16.920;2023-05-16T08:27:58;100309.09;;;14.30;89.68
35577;BME280;21680;52.400;16.920;2023-05-16T08:30:24;100310.33;;;14.41;89.23
35577;BME280;21680;52.400;16.920;2023-05-16T08:32:50;100310.63;;;14.51;88.88
35577;BME280;21680;52.400;16.920;2023-05-16T08:35:15;100323.61;;;14.61;88.73
35577;BME280;21680;52.400;16.920;2023-05-16T08:37:40;100327.34;;;14.68;88.29
35577;BME280;21680;52.400;16.920;2023-05-16T08:40:08;100328.20;;;14.76;87.63
35577;BME280;21680;52.400;16.920;2023-05-16T08:42:35;100331.23;;;14.88;87.89
35577;BME280;21680;52.400;16.920;2023-05-16T08:45:00;100324.73;;;14.93;87.00
35577;BME280;21680;52.400;16.920;2023-05-16T08:47:29;100330.27;;;14.91;86.26
35577;BME280;21680;52.400;16.920;2023-05-16T08:49:56;100330.50;;;14.90;86.32
35577;BME280;21680;52.400;16.920;2023-05-16T08:52:26;100335.59;;;15.03;86.79
35577;BME280;21680;52.400;16.920;2023-05-16T08:54:56;100339.60;;;15.18;86.56
35577;BME280;21680;52.400;16.920;2023-05-16T08:57:21;100338.96;;;15.31;86.16
35577;BME280;21680;52.400;16.920;2023-05-16T08:59:48;100345.67;;;15.43;85.54
35577;BME280;21680;52.400;16.920;2023-05-16T09:02:13;100340.02;;;15.44;85.11
35577;BME280;21680;52.400;16.920;2023-05-16T09:04:39;100340.42;;;15.51;85.29
35577;BME280;21680;52.400;16.920;2023-05-16T09:07:05;100343.47;;;15.65;85.11
35577;BME280;21680;52.400;16.920;2023-05-16T09:09:30;100354.85;;;15.72;84.94
35577;BME280;21680;52.400;16.920;2023-05-16T09:11:55;100355.11;;;15.71;84.69
35577;BME280;21680;52.400;16.920;2023-05-16T09:14:21;100356.25;;;15.72;84.90
35577;BME280;21680;52.400;16.920;2023-05-16T09:17:03;100350.23;;;15.83;85.18
35577;BME280;21680;52.400;16.920;2023-05-16T09:19:39;100353.88;;;15.94;84.89
35577;BME280;21680;52.400;16.920;2023-05-16T09:22:12;100346.84;;;15.96;84.13
35577;BME280;21680;52.400;16.920;2023-05-16T09:24:39;100344.17;;;15.98;84.14
35577;BME280;21680;52.400;16.920;2023-05-16T09:27:12;100346.55;;;16.03;83.97
35577;BME280;21680;52.400;16.920;2023-05-16T09:29:42;100349.66;;;16.05;83.41
35577;BME280;21680;52.400;16.920;2023-05-16T09:32:15;100344.66;;;16.12;83.46
35577;BME280;21680;52.400;16.920;2023-05-16T09:34:48;100343.80;;;16.16;82.95
35577;BME280;21680;52.400;16.920;2023-05-16T09:37:15;100347.92;;;16.11;82.15
35577;BME280;21680;52.400;16.920;2023-05-16T09:39:48;100347.48;;;16.20;82.58
35577;BME280;21680;52.400;16.920;2023-05-16T09:42:14;100348.04;;;16.27;82.63
35577;BME280;21680;52.400;16.920;2023-05-16T09:44:40;100355.48;;;16.44;83.22
35577;BME280;21680;52.400;16.920;2023-05-16T09:47:06;100361.77;;;16.65;82.80
35577;BME280;21680;52.400;16.920;2023-05-16T09:49:31;100360.94;;;16.71;82.23
35577;BME280;21680;52.400;16.920;2023-05-16T09:52:01;100365.56;;;16.79;82.31
35577;BME280;21680;52.400;16.920;2023-05-16T09:54:33;100369.25;;;16.80;80.91
35577;BME280;21680;52.400;16.920;2023-05-16T09:57:00;100363.98;;;16.74;80.41
35577;BME280;21680;52.400;16.920;2023-05-16T09:59:30;100364.29;;;16.62;79.61
35577;BME280;21680;52.400;16.920;2023-05-16T10:01:57;100365.61;;;16.61;79.73
35577;BME280;21680;52.400;16.920;2023-05-16T10:04:25;100369.84;;;16.75;80.23
35577;BME280;21680;52.400;16.920;2023-05-16T10:06:55;100372.14;;;16.90;79.85
35577;BME280;21680;52.400;16.920;2023-05-16T10:09:22;100372.85;;;16.90;79.11
35577;BME280;21680;52.400;16.920;2023-05-16T10:11:48;100377.27;;;16.82;79.14
35577;BME280;21680;52.400;16.920;2023-05-16T10:14:19;100376.89;;;16.72;78.55
35577;BME280;21680;52.400;16.920;2023-05-16T10:16:47;100374.39;;;16.67;78.23
35577;BME280;21680;52.400;16.920;2023-05-16T10:19:16;100379.36;;;16.68;77.84
35577;BME280;21680;52.400;16.920;2023-05-16T10:21:47;100377.25;;;16.65;77.01
35577;BME280;21680;52.400;16.920;2023-05-16T10:24:28;100382.83;;;16.65;77.20
35577;BME280;21680;52.400;16.920;2023-05-16T10:26:53;100391.33;;;16.75;77.22
35577;BME280;21680;52.400;16.920;2023-05-16T10:29:19;100386.34;;;16.79;77.04
35577;BME280;21680;52.400;16.920;2023-05-16T10:31:45;100393.34;;;16.94;76.86
35577;BME280;21680;52.400;16.920;2023-05-16T10:34:13;100395.30;;;17.02;76.61
35577;BME280;21680;52.400;16.920;2023-05-16T10:36:39;100395.96;;;17.09;76.99
35577;BME280;21680;52.400;16.920;2023-05-16T10:39:05;100404.39;;;17.17;77.02
35577;BME280;21680;52.400;16.920;2023-05-16T10:41:32;100410.70;;;17.15;76.07
35577;BME280;21680;52.400;16.920;2023-05-16T10:43:58;100414.92;;;17.00;75.73
35577;BME280;21680;52.400;16.920;2023-05-16T10:46:26;100415.40;;;16.86;75.25
35577;BME280;21680;52.400;16.920;2023-05-16T10:48:52;100412.81;;;16.92;75.60
35577;BME280;21680;52.400;16.920;2023-05-16T10:51:32;100414.48;;;17.15;75.94
35577;BME280;21680;52.400;16.920;2023-05-16T10:54:07;100415.73;;;17.37;76.16
35577;BME280;21680;52.400;16.920;2023-05-16T10:56:32;100418.02;;;17.50;75.84
35577;BME280;21680;52.400;16.920;2023-05-16T10:58:59;100420.31;;;17.53;74.84
35577;BME280;21680;52.400;16.920;2023-05-16T11:01:34;100420.75;;;17.52;74.07
35577;BME280;21680;52.400;16.920;2023-05-16T11:04:01;100435.16;;;17.53;73.56
35577;BME280;21680;52.400;16.920;2023-05-16T11:06:42;100433.95;;;17.47;73.05
35577;BME280;21680;52.400;16.920;2023-05-16T11:11:39;100438.98;;;17.21;71.92
35577;BME280;21680;52.400;16.920;2023-05-16T11:14:05;100436.60;;;17.12;72.64
35577;BME280;21680;52.400;16.920;2023-05-16T11:16:32;100435.80;;;17.10;72.39
35577;BME280;21680;52.400;16.920;2023-05-16T11:19:05;100441.48;;;17.09;72.30
35577;BME280;21680;52.400;16.920;2023-05-16T11:24:38;100448.21;;;17.13;72.26
35577;BME280;21680;52.400;16.920;2023-05-16T11:27:04;100457.88;;;17.22;72.29
35577;BME280;21680;52.400;16.920;2023-05-16T11:29:31;100461.10;;;17.27;72.11
35577;BME280;21680;52.400;16.920;2023-05-16T11:31:59;100457.37;;;17.21;71.91
35577;BME280;21680;52.400;16.920;2023-05-16T11:34:25;100465.34;;;17.16;71.31
35577;BME280;21680;52.400;16.920;2023-05-16T11:36:50;100473.04;;;17.07;71.16
35577;BME280;21680;52.400;16.920;2023-05-16T11:39:16;100482.33;;;16.94;71.01
35577;BME280;21680;52.400;16.920;2023-05-16T11:41:43;100486.44;;;16.99;70.97
35577;BME280;21680;52.400;16.920;2023-05-16T11:44:10;100488.16;;;16.96;70.81
35577;BME280;21680;52.400;16.920;2023-05-16T11:46:38;100486.16;;;16.88;71.04
35577;BME280;21680;52.400;16.920;2023-05-16T11:49:03;100486.13;;;16.86;71.39
35577;BME280;21680;52.400;16.920;2023-05-16T11:51:29;100479.90;;;16.97;71.64
35577;BME280;21680;52.400;16.920;2023-05-16T11:53:55;100484.98;;;17.14;71.80
35577;BME280;21680;52.400;16.920;2023-05-16T11:56:21;100485.00;;;17.14;71.22
35577;BME280;21680;52.400;16.920;2023-05-16T11:58:48;100490.95;;;17.12;70.19
35577;BME280;21680;52.400;16.920;2023-05-16T12:01:14;100491.58;;;17.03;69.60
35577;BME280;21680;52.400;16.920;2023-05-16T12:03:40;100497.04;;;17.15;70.07
35577;BME280;21680;52.400;16.920;2023-05-16T12:06:05;100499.77;;;17.25;69.13
35577;BME280;21680;52.400;16.920;2023-05-16T12:08:30;100501.36;;;17.25;69.42
35577;BME280;21680;52.400;16.920;2023-05-16T12:10:55;100503.92;;;17.25;69.18
35577;BME280;21680;52.400;16.920;2023-05-16T12:13:22;100504.79;;;17.30;69.64
35577;BME280;21680;52.400;16.920;2023-05-16T12:15:49;100504.73;;;17.23;68.87
35577;BME280;21680;52.400;16.920;2023-05-16T12:18:17;100502.05;;;17.15;68.90
35577;BME280;21680;52.400;16.920;2023-05-16T12:20:43;100508.20;;;17.15;69.09
35577;BME280;21680;52.400;16.920;2023-05-16T12:23:12;100512.95;;;17.02;68.94
35577;BME280;21680;52.400;16.920;2023-05-16T12:25:39;100518.20;;;16.89;68.99
35577;BME280;21680;52.400;16.920;2023-05-16T12:28:11;100507.80;;;16.71;68.38
35577;BME280;21680;52.400;16.920;2023-05-16T12:30:40;100505.56;;;16.59;68.44
35577;BME280;21680;52.400;16.920;2023-05-16T12:33:11;100503.25;;;16.59;68.72
35577;BME280;21680;52.400;16.920;2023-05-16T12:35:39;100506.62;;;16.72;69.22
35577;BME280;21680;52.400;16.920;2023-05-16T12:38:06;100506.73;;;16.86;69.24
35577;BME280;21680;52.400;16.920;2023-05-16T12:40:32;100509.77;;;16.94;69.24
35577;BME280;21680;52.400;16.920;2023-05-16T12:42:57;100508.04;;;16.93;69.01
35577;BME280;21680;52.400;16.920;2023-05-16T12:45:23;100512.09;;;16.87;69.30
35577;BME280;21680;52.400;16.920;2023-05-16T12:47:49;100513.95;;;16.81;69.22
35577;BME280;21680;52.400;16.920;2023-05-16T12:50:15;100514.72;;;16.85;69.23
35577;BME280;21680;52.400;16.920;2023-05-16T12:52:58;100515.11;;;16.85;69.30
35577;BME280;21680;52.400;16.920;2023-05-16T12:55:23;100514.50;;;16.91;69.77
35577;BME280;21680;52.400;16.920;2023-05-16T12:57:49;100521.13;;;17.09;69.78
35577;BME280;21680;52.400;16.920;2023-05-16T13:00:17;100522.63;;;17.08;69.37
35577;BME280;21680;52.400;16.920;2023-05-16T13:02:43;100521.60;;;17.08;69.63
35577;BME280;21680;52.400;16.920;2023-05-16T13:05:09;100531.06;;;17.11;69.73
35577;BME280;21680;52.400;16.920;2023-05-16T13:07:35;100529.92;;;17.07;69.56
35577;BME280;21680;52.400;16.920;2023-05-16T13:10:00;100532.30;;;17.00;69.36